Time;durP1;ratioP1;P1;durP2;ratioP2;P2;SDS_P1;SDS_P2;PMS_P1;PMS_P2;Temp;Humidity;BMP_temperature;BMP_pressure;BME280_temperature;BME280_humidity;BME280_pressure;Samples;Min_cycle;Max_cycle;Signal;HPM_P1;HPM_P2
2023/07/03 00:02:00;;;;;;;8.03;4.57;;;16.70;84.00;;;16.29;54.80;100238.69;5056352;28;20285;-75
2023/07/03 00:04:35;;;;;;;8.40;4.27;;;16.70;84.70;;;16.28;54.68;100234.31;5056254;28;20222;-75
2023/07/03 00:07:08;;;;;;;7.10;4.50;;;16.70;85.00;;;16.31;53.94;100244.69;5056304;28;20193;-75
2023/07/03 00:09:40;;;;;;;9.07;4.77;;;16.80;84.70;;;16.24;54.20;100250.09;5055955;28;20226;-75
2023/07/03 00:12:15;;;;;;;9.30;4.90;;;16.80;85.20;;;16.21;53.74;100247.81;5056226;28;20218;-75
2023/07/03 00:14:48;;;;;;;8.60;4.60;;;16.80;84.90;;;16.24;54.33;100243.88;5055985;28;20251;-75
2023/07/03 00:17:20;;;;;;;8.23;4.67;;;16.70;85.40;;;16.23;54.53;100242.22;5056181;28;20214;-76
2023/07/03 00:19:52;;;;;;;8.10;4.80;;;16.70;85.00;;;16.18;54.48;100236.59;5056044;28;20194;-75
2023/07/03 00:22:24;;;;;;;6.57;4.53;;;16.70;85.30;;;16.24;54.91;100233.06;5055662;28;20280;-75
2023/07/03 00:24:56;;;;;;;9.27;4.77;;;16.70;85.50;;;16.15;54.61;100235.16;5055844;28;20304;-75
2023/07/03 00:27:29;;;;;;;9.57;4.63;;;16.70;84.80;;;16.10;53.94;100231.41;5055574;28;20289;-75
2023/07/03 00:30:01;;;;;;;9.27;5.10;;;16.60;85.20;;;16.15;54.79;100229.75;5055581;28;20221;-75
2023/07/03 00:32:33;;;;;;;9.80;4.77;;;16.70;86.00;;;16.11;55.19;100230.38;5055532;28;20240;-75
2023/07/03 00:35:06;;;;;;;7.40;5.00;;;16.70;85.90;;;16.10;55.78;100218.72;5055371;28;20238;-75
2023/07/03 00:37:38;;;;;;;11.43;4.93;;;16.80;86.50;;;16.13;56.06;100221.00;5055668;28;20195;-75
2023/07/03 00:40:14;;;;;;;9.57;4.80;;;16.60;86.50;;;16.09;55.41;100227.06;5055724;28;20285;-75
2023/07/03 00:42:52;;;;;;;9.43;5.00;;;16.60;87.30;;;16.11;56.01;100219.56;5056036;28;20229;-75
2023/07/03 00:45:26;;;;;;;9.83;4.87;;;16.60;87.10;;;16.08;55.52;100217.28;5056532;28;20723;-74
2023/07/03 00:48:00;;;;;;;7.53;4.60;;;16.60;87.10;;;16.08;55.68;100217.28;5057253;28;20709;-75
2023/07/03 00:50:34;;;;;;;9.43;4.93;;;16.60;87.00;;;16.04;56.48;100216.88;5055567;28;20192;-75
2023/07/03 00:53:10;;;;;;;9.50;5.07;;;16.60;87.40;;;16.05;56.07;100217.72;5055618;28;20214;-75
2023/07/03 00:55:45;;;;;;;9.70;4.83;;;16.60;87.40;;;16.06;56.13;100214.78;5055680;28;20230;-74
2023/07/03 00:58:18;;;;;;;12.37;5.40;;;16.60;87.20;;;16.05;56.04;100212.31;5055787;28;20281;-75
2023/07/03 01:00:59;;;;;;;7.33;4.50;;;16.50;87.10;;;16.03;56.16;100215.22;5055694;28;20190;-75
2023/07/03 01:03:40;;;;;;;10.90;4.73;;;16.60;87.40;;;15.97;55.92;100209.81;5055720;28;20200;-75
2023/07/03 01:06:21;;;;;;;10.57;4.90;;;16.50;87.10;;;15.95;56.48;100211.91;5055523;28;20290;-74
2023/07/03 01:08:59;;;;;;;8.40;4.73;;;16.40;87.40;;;15.95;56.34;100218.13;5054646;28;20640;-74
2023/07/03 01:11:32;;;;;;;9.97;5.13;;;16.50;87.70;;;15.96;56.46;100214.38;5054971;28;20236;-75
2023/07/03 01:14:09;;;;;;;10.37;4.67;;;16.50;87.80;;;15.94;56.04;100215.63;5054935;28;20253;-75
2023/07/03 01:16:42;;;;;;;9.53;5.07;;;16.40;88.00;;;15.87;56.10;100209.41;5054939;28;20198;-75
2023/07/03 01:19:23;;;;;;;6.73;5.27;;;16.40;87.90;;;15.80;57.54;100206.69;5054688;28;20201;-75
2023/07/03 01:22:05;;;;;;;9.87;4.77;;;16.40;88.60;;;15.73;57.43;100204.00;5054901;28;20281;-75
2023/07/03 01:24:45;;;;;;;8.83;4.60;;;16.20;88.80;;;15.75;57.86;100201.09;5054733;28;20320;-75
2023/07/03 01:27:22;;;;;;;10.63;5.33;;;16.30;89.40;;;15.78;57.35;100197.16;5054471;28;20193;-75
2023/07/03 01:29:57;;;;;;;11.97;5.40;;;16.30;89.40;;;15.68;58.27;100200.25;5054440;28;20186;-75
2023/07/03 01:32:32;;;;;;;8.30;4.53;;;16.20;89.80;;;15.66;58.19;100197.75;5054704;28;20197;-75
2023/07/03 01:35:08;;;;;;;9.63;5.30;;;16.20;90.20;;;15.63;58.58;100203.56;5054198;28;20248;-75
2023/07/03 01:37:44;;;;;;;9.50;5.13;;;16.20;90.40;;;15.61;58.76;100204.81;5054569;28;20190;-75
2023/07/03 01:40:24;;;;;;;8.37;4.80;;;16.20;90.50;;;15.59;58.80;100205.00;5054570;28;20225;-75
2023/07/03 01:42:58;;;;;;;10.13;5.23;;;16.10;90.40;;;15.51;58.75;100199.84;5054419;28;20290;-75
2023/07/03 01:45:33;;;;;;;9.93;5.37;;;16.10;91.30;;;15.58;58.74;100189.84;5054360;28;20225;-75
2023/07/03 01:48:05;;;;;;;12.03;5.17;;;16.10;91.30;;;15.57;58.99;100187.38;5054400;28;20225;-75
2023/07/03 01:50:39;;;;;;;9.03;5.03;;;16.10;91.30;;;15.58;58.95;100192.56;5054296;28;20186;-75
2023/07/03 01:53:24;;;;;;;11.00;4.90;;;16.10;91.10;;;15.53;59.27;100178.03;5054281;28;20273;-75
2023/07/03 01:56:04;;;;;;;9.57;5.00;;;16.10;91.20;;;15.49;59.24;100190.25;5053707;28;20581;-75
2023/07/03 01:58:46;;;;;;;8.77;4.87;;;16.10;91.30;;;15.53;59.08;100181.56;5054178;28;20198;-75
2023/07/03 02:01:28;;;;;;;10.83;5.73;;;16.00;91.40;;;15.50;59.63;100184.69;5054133;28;20221;-75
2023/07/03 02:04:13;;;;;;;9.40;5.03;;;16.10;91.40;;;15.43;59.20;100175.72;5053654;28;20720;-75
2023/07/03 02:06:48;;;;;;;14.90;6.00;;;16.00;91.50;;;15.41;60.16;100179.66;5054008;28;20194;-75
2023/07/03 02:09:20;;;;;;;8.77;4.80;;;16.00;91.80;;;15.42;60.43;100179.44;5053947;28;20217;-75
2023/07/03 02:11:56;;;;;;;10.43;5.30;;;16.00;91.90;;;15.38;59.91;100183.56;5053921;28;20265;-75
2023/07/03 02:14:29;;;;;;;9.87;4.97;;;16.00;92.30;;;15.39;59.91;100196.03;5053794;28;20226;-75
2023/07/03 02:17:00;;;;;;;8.67;4.93;;;15.90;92.10;;;15.41;60.02;100185.84;5053781;28;20277;-75
2023/07/03 02:19:33;;;;;;;11.80;5.53;;;16.00;92.10;;;15.46;59.70;100180.69;5053512;28;20663;-75
2023/07/03 02:22:06;;;;;;;10.90;5.13;;;16.00;91.80;;;15.45;59.10;100180.88;5053727;28;20278;-75
2023/07/03 02:24:38;;;;;;;11.93;5.90;;;16.10;91.70;;;15.49;59.25;100182.16;5053642;28;20225;-75
2023/07/03 02:27:12;;;;;;;11.50;5.63;;;16.10;91.60;;;15.56;59.42;100186.53;5054048;28;20285;-75
2023/07/03 02:29:44;;;;;;;11.53;5.57;;;16.10;91.70;;;15.55;59.17;100187.56;5053655;28;20214;-75
2023/07/03 02:32:16;;;;;;;13.40;5.57;;;16.10;91.50;;;15.55;59.76;100189.44;5053602;28;20566;-75
2023/07/03 02:34:48;;;;;;;12.27;5.50;;;16.10;91.60;;;15.55;58.85;100186.72;5052901;28;20704;-76
2023/07/03 02:37:20;;;;;;;11.23;4.67;;;16.10;91.60;;;15.52;59.79;100190.69;5053254;28;20222;-75
2023/07/03 02:39:51;;;;;;;12.63;5.53;;;16.10;91.60;;;15.58;58.99;100181.75;5053422;28;20277;-75
2023/07/03 02:42:24;;;;;;;11.53;5.27;;;16.10;91.70;;;15.55;59.75;100184.03;5053153;28;20738;-75
2023/07/03 02:44:57;;;;;;;11.97;5.60;;;16.10;91.80;;;15.53;59.78;100181.56;5053391;28;20222;-75
2023/07/03 02:47:32;;;;;;;12.17;5.40;;;16.10;91.80;;;15.52;60.26;100179.06;5053060;28;20644;-75
2023/07/03 02:50:05;;;;;;;10.83;5.20;;;16.10;92.00;;;15.51;60.59;100186.34;5053039;28;20236;-75
2023/07/03 02:52:37;;;;;;;13.30;6.20;;;16.10;92.10;;;15.55;60.64;100174.09;5054112;28;20212;-75
2023/07/03 02:55:10;;;;;;;13.37;5.70;;;16.10;92.20;;;15.58;60.23;100170.97;5052843;28;20248;-75
2023/07/03 02:57:43;;;;;;;10.83;5.63;;;16.20;92.20;;;15.57;61.18;100176.59;5052922;28;20193;-75
2023/07/03 03:00:16;;;;;;;11.93;5.33;;;16.20;92.40;;;15.51;61.23;100172.03;5052938;28;20718;-75
2023/07/03 03:02:50;;;;;;;10.33;5.50;;;16.10;92.50;;;15.48;61.55;100172.41;5053118;28;20253;-75
2023/07/03 03:05:21;;;;;;;12.80;5.13;;;16.00;92.80;;;15.51;60.89;100175.56;5053157;28;20222;-75
2023/07/03 03:07:53;;;;;;;13.97;5.50;;;16.10;93.00;;;15.52;61.00;100174.50;5052873;28;20641;-75
2023/07/03 03:10:25;;;;;;;12.80;5.50;;;16.10;92.80;;;15.53;61.31;100169.94;5053172;28;20194;-75
2023/07/03 03:12:58;;;;;;;11.23;5.90;;;16.10;93.00;;;15.50;61.76;100171.19;5053142;28;20221;-75
2023/07/03 03:15:35;;;;;;;14.33;5.53;;;16.00;93.00;;;15.52;61.70;100163.69;5053356;28;20261;-75
2023/07/03 03:18:07;;;;;;;14.43;5.70;;;16.10;93.10;;;15.55;61.19;100168.69;5052787;28;20655;-75
2023/07/03 03:20:39;;;;;;;9.83;5.43;;;16.10;93.00;;;15.50;61.92;100171.19;5052772;28;20529;-75
2023/07/03 03:23:11;;;;;;;12.43;5.63;;;16.00;93.20;;;15.49;62.31;100174.91;5053010;28;20229;-75
2023/07/03 03:25:44;;;;;;;15.20;6.50;;;16.10;93.20;;;15.53;62.06;100169.94;5052958;28;20309;-75
2023/07/03 03:28:15;;;;;;;14.27;5.70;;;16.10;93.20;;;15.52;62.24;100173.66;5052996;28;20285;-75
2023/07/03 03:30:48;;;;;;;14.43;5.60;;;16.10;93.30;;;15.52;62.02;100179.06;5052968;28;20240;-75
2023/07/03 03:33:20;;;;;;;11.87;5.53;;;16.20;93.40;;;15.51;62.32;100167.47;5054666;28;20234;-75
2023/07/03 03:35:52;;;;;;;16.40;6.27;;;16.10;93.40;;;15.51;62.45;100164.75;5056386;28;20268;-75
2023/07/03 03:38:24;;;;;;;14.97;5.70;;;16.10;93.50;;;15.50;61.98;100164.94;5056840;28;20285;-75
2023/07/03 03:41:03;;;;;;;11.93;5.70;;;16.10;93.70;;;15.51;62.47;100170.16;5056847;28;20218;-75
2023/07/03 03:43:36;;;;;;;14.07;6.27;;;16.20;94.00;;;15.50;62.89;100175.75;5056400;28;20636;-75
2023/07/03 03:46:08;;;;;;;17.17;5.60;;;16.10;94.00;;;15.50;62.92;100176.59;5056476;28;20221;-75
2023/07/03 03:48:40;;;;;;;10.90;5.60;;;16.10;94.10;;;15.51;63.18;100170.16;5056893;28;20632;-74
2023/07/03 03:51:16;;;;;;;15.10;6.30;;;16.10;94.00;;;15.51;63.70;100172.03;5056618;28;20190;-74
2023/07/03 03:53:48;;;;;;;16.63;6.13;;;16.10;94.30;;;15.48;63.49;100178.63;5056555;28;20194;-74
2023/07/03 03:56:20;;;;;;;15.53;6.37;;;16.10;94.30;;;15.51;63.44;100175.56;5056205;28;20217;-74
2023/07/03 03:58:53;;;;;;;14.27;5.80;;;16.00;94.70;;;15.46;63.04;100179.84;5056750;28;20273;-74
2023/07/03 04:01:25;;;;;;;17.00;6.17;;;16.10;94.50;;;15.50;63.40;100171.19;5056783;28;20285;-74
2023/07/03 04:03:59;;;;;;;14.60;5.80;;;16.10;94.30;;;15.49;63.06;100180.31;5056776;28;20226;-74
2023/07/03 04:06:31;;;;;;;14.37;6.07;;;16.10;94.10;;;15.44;62.67;100180.06;5056603;28;20587;-74
2023/07/03 04:09:03;;;;;;;19.50;6.27;;;16.10;94.10;;;15.40;63.32;100181.50;5056511;28;20214;-73
2023/07/03 04:11:35;;;;;;;12.90;6.50;;;16.00;94.20;;;15.39;64.04;100177.16;5057060;28;20194;-75
2023/07/03 04:14:08;;;;;;;16.13;6.40;;;16.00;94.60;;;15.38;63.54;100177.34;5056195;28;20771;-75
2023/07/03 04:16:40;;;;;;;15.50;6.60;;;15.90;94.50;;;15.36;63.62;100165.94;5056087;28;20210;-75
2023/07/03 04:19:14;;;;;;;16.73;6.67;;;16.00;94.60;;;15.36;63.95;100177.56;5056122;28;20191;-75
2023/07/03 04:21:46;;;;;;;15.70;6.07;;;16.00;94.70;;;15.41;63.33;100172.38;5056321;28;20270;-75
2023/07/03 04:24:18;;;;;;;16.50;6.40;;;15.90;94.50;;;15.38;63.88;100183.56;5056258;28;20261;-75
2023/07/03 04:26:54;;;;;;;13.80;5.87;;;15.90;94.80;;;15.34;64.41;100181.50;5055659;28;20684;-75
2023/07/03 04:29:27;;;;;;;12.67;6.17;;;15.90;94.90;;;15.34;64.46;100179.66;5055952;28;20232;-75
2023/07/03 04:31:59;;;;;;;13.23;5.83;;;15.90;94.90;;;15.29;64.60;100189.38;5055522;28;20595;-75
2023/07/03 04:34:31;;;;;;;15.80;6.13;;;16.00;95.00;;;15.32;64.23;100184.41;5055522;28;20237;-75
2023/07/03 04:37:03;;;;;;;16.27;6.17;;;15.90;95.00;;;15.32;64.72;100186.25;5055667;28;20215;-75
2023/07/03 04:39:35;;;;;;;18.77;6.83;;;15.90;95.20;;;15.29;64.73;100195.59;5056101;28;20210;-75
2023/07/03 04:42:13;;;;;;;13.67;6.10;;;15.80;95.20;;;15.31;64.70;100193.50;5055684;28;20273;-75
2023/07/03 04:44:47;;;;;;;14.47;6.10;;;15.90;95.20;;;15.29;64.60;100194.75;5054369;28;20287;-75
2023/07/03 04:47:19;;;;;;;12.77;6.37;;;15.90;95.20;;;15.26;65.21;100189.78;5055294;28;20552;-75
2023/07/03 04:49:55;;;;;;;10.63;5.93;;;15.90;95.40;;;15.28;65.02;100191.22;5055557;28;20186;-75
2023/07/03 04:52:27;;;;;;;12.50;5.97;;;15.90;95.50;;;15.28;64.74;100175.03;5055177;28;20636;-75
2023/07/03 04:54:59;;;;;;;14.47;6.30;;;15.90;95.50;;;15.27;64.99;100178.78;5055120;28;20573;-75
2023/07/03 04:57:32;;;;;;;16.40;6.37;;;15.80;95.40;;;15.27;65.13;100178.78;5055531;28;20322;-75
2023/07/03 05:00:11;;;;;;;13.63;5.80;;;15.90;95.50;;;15.31;64.74;100174.63;5055326;28;20261;-75
2023/07/03 05:02:43;;;;;;;12.80;5.90;;;15.90;95.40;;;15.33;65.23;100175.28;5055295;28;20225;-75
2023/07/03 05:05:19;;;;;;;13.53;6.10;;;15.90;95.50;;;15.32;65.35;100175.47;5055204;28;20233;-75
2023/07/03 05:07:52;;;;;;;13.73;5.73;;;15.90;95.60;;;15.35;64.89;100175.88;5055685;28;20190;-75
2023/07/03 05:10:26;;;;;;;14.07;6.10;;;15.90;95.50;;;15.38;65.37;100172.78;5055175;28;20194;-75
2023/07/03 05:12:57;;;;;;;18.13;6.50;;;16.00;95.60;;;15.36;64.69;100169.47;5055113;28;20277;-75
2023/07/03 05:15:31;;;;;;;15.10;5.60;;;16.10;95.40;;;15.38;64.83;100175.47;5054580;28;20731;-75
2023/07/03 05:18:04;;;;;;;13.17;5.50;;;16.00;95.60;;;15.41;64.39;100175.06;5054979;28;20226;-75
2023/07/03 05:20:36;;;;;;;15.13;6.10;;;16.10;95.40;;;15.41;64.76;100191.25;5054911;28;20282;-75
2023/07/03 05:23:08;;;;;;;20.23;6.20;;;16.00;95.50;;;15.38;65.26;100194.34;5054911;28;20277;-75
2023/07/03 05:25:40;;;;;;;15.97;5.73;;;16.00;95.50;;;15.37;64.66;100184.63;5054506;28;20731;-75
2023/07/03 05:28:12;;;;;;;13.30;5.47;;;16.00;95.30;;;15.42;64.24;100182.13;5054819;28;20229;-75
2023/07/03 05:30:45;;;;;;;15.60;5.73;;;16.00;95.60;;;15.47;64.16;100190.44;5054769;28;20269;-75
2023/07/03 05:33:19;;;;;;;13.40;5.87;;;16.10;95.60;;;15.44;64.75;100190.88;5055241;28;20193;-75
2023/07/03 05:35:52;;;;;;;14.73;6.33;;;16.10;95.50;;;15.47;65.28;100190.44;5054169;28;20234;-75
2023/07/03 05:38:25;;;;;;;15.60;5.80;;;16.10;95.50;;;15.47;65.06;100189.63;5054601;28;20277;-75
2023/07/03 05:40:57;;;;;;;13.30;5.60;;;16.10;95.50;;;15.44;64.03;100195.44;5054562;28;20289;-75
2023/07/03 05:43:30;;;;;;;13.97;5.97;;;16.10;95.20;;;15.45;64.75;100200.59;5055037;28;20218;-75
2023/07/03 05:46:03;;;;;;;13.87;5.77;;;16.10;95.40;;;15.52;65.04;100208.72;5054380;28;20285;-75
2023/07/03 05:48:35;;;;;;;15.43;5.63;;;16.10;95.60;;;15.53;64.43;100211.25;5054074;28;20664;-75
2023/07/03 05:51:07;;;;;;;17.67;5.73;;;16.20;95.40;;;15.57;64.08;100236.78;5054337;28;20293;-75
2023/07/03 05:53:39;;;;;;;15.73;5.43;;;16.10;95.30;;;15.59;63.89;100226.59;5054206;28;20193;-75
2023/07/03 05:56:11;;;;;;;15.10;5.60;;;16.20;95.70;;;15.58;64.00;100224.94;5053861;28;20214;-75
2023/07/03 05:58:43;;;;;;;10.93;5.17;;;16.20;95.00;;;15.53;64.00;100224.72;5054202;28;20194;-75
2023/07/03 06:01:16;;;;;;;14.50;5.20;;;16.20;95.10;;;15.56;63.86;100223.47;5054137;28;20191;-75
2023/07/03 06:03:48;;;;;;;15.77;5.50;;;16.20;95.00;;;15.51;63.08;100223.28;5054797;28;20583;-75
2023/07/03 06:06:21;;;;;;;12.17;4.80;;;16.10;94.90;;;15.52;63.96;100231.16;5054019;28;20254;-75
2023/07/03 06:08:53;;;;;;;13.43;4.60;;;16.10;95.10;;;15.50;64.04;100235.94;5054010;28;20217;-75
2023/07/03 06:11:24;;;;;;;13.60;4.73;;;16.10;95.20;;;15.56;63.73;100224.31;5053595;28;20245;-75
2023/07/03 06:13:56;;;;;;;14.63;5.40;;;16.20;95.20;;;15.61;64.27;100227.25;5054063;28;20230;-75
2023/07/03 06:16:34;;;;;;;14.50;5.07;;;16.20;95.10;;;15.67;63.98;100229.13;5053458;28;20306;-75
2023/07/03 06:19:07;;;;;;;15.17;5.30;;;16.30;95.30;;;15.72;62.94;100226.63;5053837;28;20281;-75
2023/07/03 06:21:41;;;;;;;13.20;4.50;;;16.40;95.00;;;15.83;63.33;100245.94;5053770;28;20229;-75
2023/07/03 06:24:14;;;;;;;16.60;5.30;;;16.40;95.20;;;15.85;63.47;100249.28;5053348;28;20312;-75
2023/07/03 06:26:46;;;;;;;14.50;4.57;;;16.50;94.90;;;15.88;63.47;100251.56;5053390;28;20244;-75
2023/07/03 06:29:18;;;;;;;15.60;4.87;;;16.50;94.80;;;15.93;63.64;100249.06;5053711;28;20233;-75
2023/07/03 06:31:52;;;;;;;19.43;5.30;;;16.50;94.90;;;16.00;63.11;100252.59;5053683;28;20218;-75
2023/07/03 06:34:24;;;;;;;15.60;4.87;;;16.60;95.00;;;16.03;62.33;100250.31;5053055;28;20676;-75
2023/07/03 06:36:56;;;;;;;16.27;5.50;;;16.60;94.60;;;16.05;62.81;100256.34;5053135;28;20305;-75
2023/07/03 06:39:28;;;;;;;17.97;5.10;;;16.60;95.10;;;16.08;62.50;100257.78;5053231;28;20196;-75
2023/07/03 06:42:00;;;;;;;16.40;5.57;;;16.70;94.70;;;16.12;62.84;100267.16;5053505;28;20225;-75
2023/07/03 06:44:32;;;;;;;12.23;4.40;;;16.70;94.70;;;16.11;62.67;100266.31;5053340;28;20313;-75
2023/07/03 06:47:05;;;;;;;11.40;4.43;;;16.70;94.60;;;16.15;62.06;100272.97;5053372;28;20203;-75
2023/07/03 06:49:38;;;;;;;15.27;4.70;;;16.70;94.40;;;16.19;61.57;100273.38;5053387;28;20190;-75
2023/07/03 06:52:11;;;;;;;17.33;4.90;;;16.80;94.10;;;16.20;61.53;100275.03;5053382;28;20202;-75
2023/07/03 06:54:43;;;;;;;18.43;5.37;;;16.90;93.50;;;16.24;62.04;100271.72;5053222;28;20308;-76
2023/07/03 06:57:15;;;;;;;15.43;5.03;;;16.80;94.10;;;16.23;61.98;100282.75;5054108;28;20297;-76
2023/07/03 06:59:50;;;;;;;17.90;4.90;;;16.80;93.90;;;16.24;61.37;100281.69;5053238;28;20290;-76
2023/07/03 07:02:23;;;;;;;19.50;5.00;;;16.90;93.90;;;16.25;61.15;100283.34;5052991;28;20622;-76
2023/07/03 07:04:56;;;;;;;13.40;4.73;;;16.80;93.80;;;16.30;61.61;100280.84;5053253;28;20222;-76
2023/07/03 07:07:30;;;;;;;15.93;5.43;;;16.90;94.00;;;16.33;62.68;100280.44;5052544;28;20189;-77
2023/07/03 07:10:03;;;;;;;18.43;4.97;;;17.00;94.10;;;16.26;61.08;100268.81;5053239;28;20247;-77
2023/07/03 07:12:35;;;;;;;16.87;5.10;;;16.90;93.50;;;16.28;60.70;100282.94;5053114;28;20252;-77
2023/07/03 07:15:08;;;;;;;15.77;5.03;;;16.90;93.30;;;16.28;61.41;100282.94;5053099;28;20316;-77
2023/07/03 07:17:42;;;;;;;18.90;5.40;;;16.80;93.50;;;16.35;61.31;100277.53;5053081;28;20619;-77
2023/07/03 07:20:22;;;;;;;14.40;4.63;;;16.90;93.50;;;16.38;60.95;100283.34;5052797;28;20645;-76
2023/07/03 07:22:54;;;;;;;15.40;5.40;;;16.90;93.50;;;16.42;61.08;100281.88;5053071;28;20281;-76
2023/07/03 07:25:26;;;;;;;18.10;5.13;;;17.00;93.40;;;16.39;60.60;100274.22;5052684;28;20232;-77
2023/07/03 07:27:59;;;;;;;12.77;4.57;;;17.00;93.00;;;16.48;61.67;100283.75;5052940;28;20280;-77
2023/07/03 07:30:34;;;;;;;18.93;5.33;;;17.10;93.60;;;16.53;60.63;100283.13;5052999;28;20222;-76
2023/07/03 07:33:07;;;;;;;15.93;4.97;;;17.10;93.10;;;16.51;60.69;100277.91;5053060;28;20201;-76
2023/07/03 07:35:42;;;;;;;14.27;4.63;;;17.10;93.20;;;16.55;61.45;100273.78;5052595;28;20242;-77
2023/07/03 07:38:14;;;;;;;14.10;4.63;;;17.10;93.40;;;16.60;60.39;100282.13;5052849;28;20219;-77
2023/07/03 07:40:46;;;;;;;16.30;5.03;;;17.20;93.30;;;16.66;60.27;100278.56;5052919;28;20277;-77
2023/07/03 07:43:17;;;;;;;18.17;5.30;;;17.20;93.00;;;16.65;59.50;100274.19;5052830;28;20194;-77
2023/07/03 07:45:56;;;;;;;17.33;4.80;;;17.40;92.80;;;16.70;60.42;100277.09;5052476;28;20329;-76
2023/07/03 07:48:31;;;;;;;14.77;4.60;;;17.30;93.10;;;16.74;60.33;100277.50;5052865;28;20190;-77
2023/07/03 07:51:10;;;;;;;14.07;4.80;;;17.30;93.30;;;16.75;60.27;100276.44;5052919;28;20187;-76
2023/07/03 07:53:44;;;;;;;15.77;4.80;;;17.40;93.40;;;16.79;60.21;100284.97;5052721;28;20299;-76
2023/07/03 07:56:16;;;;;;;17.87;5.30;;;17.40;93.10;;;16.71;60.34;100294.97;5052779;28;20314;-76
2023/07/03 07:58:49;;;;;;;18.97;5.13;;;17.30;93.20;;;16.66;60.62;100289.38;5052738;28;20215;-76
2023/07/03 08:01:20;;;;;;;16.23;5.10;;;17.20;93.30;;;16.63;61.09;100297.06;5052700;28;20237;-76
2023/07/03 08:03:54;;;;;;;16.97;5.40;;;17.20;93.40;;;16.58;60.86;100286.03;5052337;28;20645;-76
2023/07/03 08:06:26;;;;;;;20.50;4.80;;;17.10;93.30;;;16.61;61.76;100289.16;5052764;28;20194;-76
2023/07/03 08:08:59;;;;;;;18.90;6.40;;;17.10;93.60;;;16.62;61.76;100296.25;5052700;28;20186;-64
2023/07/03 08:11:31;;;;;;;19.27;5.40;;;17.10;93.90;;;16.61;60.87;100294.56;5052800;28;20285;-73
2023/07/03 08:14:03;;;;;;;13.50;4.90;;;17.10;93.40;;;16.58;61.66;100294.16;5052474;28;20729;-73
2023/07/03 08:16:35;;;;;;;20.70;6.07;;;17.10;93.70;;;16.56;61.29;100288.97;5052757;28;20274;-74
2023/07/03 08:19:09;;;;;;;15.57;5.33;;;17.10;93.90;;;16.57;61.97;100289.81;5053894;28;20233;-74
2023/07/03 08:21:41;;;;;;;18.03;5.87;;;17.10;94.20;;;16.54;61.24;100288.31;5056296;28;20213;-74
2023/07/03 08:24:12;;;;;;;18.80;6.07;;;17.10;93.80;;;16.59;62.00;100302.06;5056208;28;20313;-73
2023/07/03 08:26:49;;;;;;;17.93;5.67;;;17.10;94.30;;;16.58;61.18;100313.91;5056223;28;20209;-74
2023/07/03 08:29:20;;;;;;;15.63;5.47;;;17.10;93.90;;;16.58;61.90;100310.38;5056135;28;20197;-74
2023/07/03 08:31:52;;;;;;;17.43;5.20;;;17.10;93.90;;;16.67;62.21;100314.53;5056086;28;20194;-74
2023/07/03 08:34:26;;;;;;;22.07;6.00;;;17.20;94.10;;;16.69;61.91;100318.69;5055740;28;20246;-74
2023/07/03 08:36:58;;;;;;;19.80;5.80;;;17.20;94.00;;;16.69;61.13;100324.09;5056021;28;20226;-74
2023/07/03 08:39:32;;;;;;;16.77;5.80;;;17.20;93.90;;;16.76;61.49;100318.66;5056381;28;20276;-74
2023/07/03 08:42:18;;;;;;;20.37;6.47;;;17.30;94.00;;;16.78;61.62;100327.38;5055939;28;20324;-74
2023/07/03 08:44:49;;;;;;;19.93;6.07;;;17.30;94.20;;;16.87;62.27;100319.91;5055811;28;20371;-74
2023/07/03 08:47:26;;;;;;;18.87;5.80;;;17.30;94.30;;;16.96;61.39;100318.63;5055852;28;20236;-74
2023/07/03 08:50:02;;;;;;;19.10;6.37;;;17.50;94.00;;;17.05;60.91;100322.78;5055775;28;20190;-73
2023/07/03 08:52:43;;;;;;;15.60;6.10;;;17.60;94.00;;;17.13;61.08;100319.81;5055690;28;20186;-73
2023/07/03 08:55:25;;;;;;;22.07;6.40;;;17.70;93.70;;;17.23;60.50;100325.63;5055250;28;20742;-73
2023/07/03 08:57:57;;;;;;;21.13;6.03;;;17.90;93.50;;;17.28;59.74;100317.72;5055504;28;20248;-74
2023/07/03 09:00:31;;;;;;;80.03;11.40;;;17.90;92.80;;;17.36;59.21;100314.78;5055654;28;20286;-74
2023/07/03 09:03:16;;;;;;;19.33;6.33;;;17.90;93.00;;;17.34;59.50;100311.44;5055549;28;20281;-74
2023/07/03 09:06:02;;;;;;;19.47;5.90;;;17.90;92.70;;;17.39;59.54;100308.94;5055441;28;20260;-74
2023/07/03 09:08:44;;;;;;;17.10;5.73;;;17.90;92.60;;;17.44;60.07;100321.78;5055069;28;20592;-74
2023/07/03 09:11:20;;;;;;;20.20;6.57;;;18.00;93.10;;;17.53;59.83;100312.41;5055404;28;20289;-74
2023/07/03 09:13:58;;;;;;;14.90;5.40;;;18.10;92.90;;;17.64;60.27;100322.56;5054939;28;20225;-74
2023/07/03 09:16:31;;;;;;;17.20;5.63;;;18.20;93.10;;;17.57;59.80;100317.19;5054953;28;20304;-74
2023/07/03 09:19:09;;;;;;;16.00;6.00;;;18.10;92.90;;;17.58;60.04;100321.56;5054863;28;20696;-74
2023/07/03 09:21:44;;;;;;;15.33;4.97;;;18.10;93.00;;;17.60;60.30;100327.56;5055166;28;20186;-73
2023/07/03 09:24:26;;;;;;;18.77;6.00;;;18.10;93.20;;;17.58;60.25;100340.50;5055029;28;20261;-73
2023/07/03 09:27:09;;;;;;;17.93;6.10;;;18.10;93.10;;;17.55;59.23;100340.06;5055038;28;20282;-73
2023/07/03 09:29:42;;;;;;;17.53;5.77;;;18.10;92.70;;;17.52;59.63;100341.34;5054963;28;20278;-73
2023/07/03 09:32:25;;;;;;;15.10;5.50;;;18.00;92.90;;;17.56;60.56;100347.19;5054382;28;20198;-73
2023/07/03 09:35:12;;;;;;;14.07;5.67;;;18.10;93.10;;;17.61;58.86;100340.06;5054583;28;20235;-73
2023/07/03 09:37:50;;;;;;;16.43;5.80;;;18.10;92.10;;;17.64;58.06;100345.03;5054818;28;20198;-73
2023/07/03 09:40:28;;;;;;;21.37;6.80;;;18.20;91.70;;;17.68;58.53;100345.44;5054537;28;20237;-73
2023/07/03 09:43:00;;;;;;;14.73;5.63;;;18.20;91.90;;;17.76;59.38;100341.66;5054763;28;20190;-73
2023/07/03 09:45:38;;;;;;;12.27;5.30;;;18.30;92.60;;;17.84;58.40;100328.72;5054624;28;20230;-73
2023/07/03 09:48:23;;;;;;;14.90;5.63;;;18.40;92.20;;;17.98;58.70;100324.84;5054752;28;20210;-73
2023/07/03 09:50:56;;;;;;;43.40;7.17;;;18.50;92.10;;;18.18;57.73;100319.31;5054542;28;20191;-73
2023/07/03 09:53:42;;;;;;;13.97;5.30;;;18.80;91.60;;;18.39;57.34;100326.25;5054157;28;20229;-73
2023/07/03 09:56:21;;;;;;;12.53;4.87;;;19.00;91.60;;;18.56;54.15;100322.75;5054471;28;20217;-73
2023/07/03 09:59:02;;;;;;;13.93;4.80;;;19.10;88.90;;;18.61;53.77;100331.06;5054809;28;20296;-74
2023/07/03 10:01:39;;;;;;;14.37;5.20;;;19.20;88.30;;;18.54;54.37;100319.47;5054483;28;20286;-73
2023/07/03 10:04:17;;;;;;;14.27;5.17;;;19.10;89.60;;;18.54;54.86;100316.75;5054244;28;20305;-73
2023/07/03 10:07:01;;;;;;;14.87;5.60;;;19.10;89.80;;;18.74;54.60;100319.25;5054305;28;20273;-73
2023/07/03 10:09:40;;;;;;;18.97;5.77;;;19.30;90.10;;;18.72;53.93;100327.66;5054226;28;20182;-73
2023/07/03 10:12:24;;;;;;;14.60;4.97;;;19.30;89.00;;;18.70;54.74;100313.47;5054192;28;20230;-73
2023/07/03 10:15:01;;;;;;;16.57;5.07;;;19.30;89.60;;;18.72;53.76;100333.06;5054052;28;20234;-73
2023/07/03 10:17:39;;;;;;;19.27;5.60;;;19.20;88.30;;;18.60;53.41;100325.88;5054094;28;20200;-73
2023/07/03 10:20:18;;;;;;;13.53;4.80;;;19.20;87.70;;;18.51;54.01;100327.22;5053990;28;20264;-74
2023/07/03 10:22:52;;;;;;;14.33;4.97;;;19.00;89.00;;;18.54;53.83;100329.47;5054085;28;20221;-74
2023/07/03 10:25:33;;;;;;;13.83;4.73;;;19.10;88.80;;;18.42;52.13;100340.19;5053899;28;20272;-73
2023/07/03 10:28:13;;;;;;;16.27;4.87;;;19.00;86.10;;;18.39;52.66;100343.31;5053878;28;20190;-73
2023/07/03 10:30:48;;;;;;;14.43;4.87;;;18.90;87.10;;;18.40;52.86;100339.56;5053890;28;20269;-74
2023/07/03 10:33:31;;;;;;;14.43;5.00;;;18.90;87.70;;;18.43;54.11;100357.25;5053815;28;20244;-74
2023/07/03 10:36:08;;;;;;;14.63;4.97;;;18.90;88.80;;;18.26;53.49;100354.25;5053373;28;20249;-74
2023/07/03 10:38:55;;;;;;;14.13;5.17;;;18.80;88.20;;;18.17;55.06;100366.41;5053373;28;20692;-74